createdAt,value
2023-01-03T00:06:32.935Z,1.00
2023-01-03T00:11:50.040Z,1.00
2023-01-03T00:16:51.675Z,1.00
2023-01-03T00:44:04.200Z,1.00
2023-01-03T00:53:59.563Z,1.00
2023-01-03T01:01:48.164Z,1.00
2023-01-03T01:04:29.106Z,1.00
2023-01-03T01:07:02.662Z,1.00
2023-01-03T01:09:34.571Z,1.00
2023-01-03T01:39:25.927Z,1.00
2023-01-03T01:47:54.377Z,1.00
2023-01-03T01:53:03.141Z,1.00
2023-01-03T01:55:40.212Z,1.00
2023-01-03T02:13:31.173Z,1.00
2023-01-03T02:24:07.955Z,1.00
2023-01-03T02:32:15.045Z,1.00
2023-01-03T02:35:06.350Z,1.00
2023-01-03T02:38:15.469Z,1.00
2023-01-03T02:43:25.873Z,1.00
2023-01-03T02:53:39.204Z,1.00
2023-01-03T02:56:10.844Z,1.00
2023-01-03T02:58:40.661Z,1.00
2023-01-03T03:01:10.959Z,1.00
2023-01-03T03:03:40.401Z,1.00
2023-01-03T03:06:41.413Z,1.00
2023-01-03T03:11:57.506Z,1.00
2023-01-03T03:14:33.603Z,1.00
2023-01-03T03:17:07.034Z,1.00
2023-01-03T03:19:55.480Z,1.00
2023-01-03T03:23:01.857Z,1.00
2023-01-03T03:25:36.581Z,2.40
2023-01-03T03:28:49.622Z,2.90
2023-01-03T03:31:40.172Z,3.60
2023-01-03T03:34:12.463Z,3.80
2023-01-03T03:37:10.095Z,3.70
2023-01-03T03:45:40.599Z,1.00
2023-01-03T03:48:25.316Z,6.60
2023-01-03T03:51:08.474Z,11.20
2023-01-03T03:53:39.433Z,12.40
2023-01-03T03:56:15.592Z,14.90
2023-01-03T03:58:46.051Z,15.80
2023-01-03T04:01:17.424Z,17.40
2023-01-03T04:03:47.583Z,19.30
2023-01-03T04:06:34.282Z,19.40
2023-01-03T04:41:08.625Z,99.90
2023-01-03T05:16:13.295Z,99.90
2023-01-03T05:21:37.613Z,99.90
2023-01-03T05:26:53.241Z,99.90
2023-01-03T05:29:22.046Z,99.90
2023-01-03T05:31:50.320Z,99.90
2023-01-03T05:44:33.670Z,99.90
2023-01-03T05:47:03.380Z,99.90
2023-01-03T06:24:23.934Z,99.90
2023-01-03T06:34:15.966Z,92.80
2023-01-03T06:39:11.365Z,76.30
2023-01-03T06:41:39.278Z,92.50
2023-01-03T06:44:09.505Z,90.50
2023-01-03T06:46:56.177Z,84.00
2023-01-03T06:52:35.598Z,42.30
2023-01-03T06:55:03.307Z,64.00
2023-01-03T06:57:32.789Z,99.90
2023-01-03T07:00:00.236Z,90.20
2023-01-03T07:02:28.072Z,55.10
2023-01-03T07:04:55.789Z,49.00
2023-01-03T07:07:23.477Z,49.10
2023-01-03T07:09:50.734Z,50.30
2023-01-03T07:12:38.099Z,33.20
2023-01-03T07:15:05.972Z,52.50
2023-01-03T07:17:33.921Z,75.00
2023-01-03T07:20:01.168Z,69.30
2023-01-03T07:22:28.890Z,54.90
2023-01-03T07:24:56.154Z,93.80
2023-01-03T07:27:23.772Z,60.30
2023-01-03T07:29:51.025Z,60.20
2023-01-03T07:32:18.697Z,52.40
2023-01-03T07:34:46.082Z,52.00
2023-01-03T07:37:13.613Z,49.60
2023-01-03T07:42:28.187Z,28.50
2023-01-03T07:47:24.224Z,26.80
2023-01-03T07:49:51.836Z,62.20
2023-01-03T07:52:19.770Z,54.40
2023-01-03T07:54:47.330Z,55.20
2023-01-03T07:57:16.762Z,59.60
2023-01-03T07:59:44.576Z,51.70
2023-01-03T08:02:12.412Z,41.70
2023-01-03T08:04:40.711Z,45.60
2023-01-03T08:07:08.469Z,48.50
2023-01-03T08:09:54.392Z,49.10
2023-01-03T08:12:41.206Z,40.40
2023-01-03T08:15:09.884Z,39.10
2023-01-03T08:17:39.988Z,43.70
2023-01-03T08:20:08.004Z,44.20
2023-01-03T08:22:35.785Z,34.80
2023-01-03T08:25:03.327Z,40.10
2023-01-03T08:27:30.985Z,32.80
2023-01-03T08:29:58.581Z,34.60
2023-01-03T08:32:26.462Z,60.00
2023-01-03T08:34:54.539Z,32.80
2023-01-03T08:37:22.314Z,55.70
2023-01-03T08:39:56.854Z,33.00
2023-01-03T08:42:26.411Z,32.60
2023-01-03T08:45:01.078Z,68.30
2023-01-03T08:47:30.716Z,28.20
2023-01-03T08:49:59.857Z,26.00
2023-01-03T08:52:34.601Z,22.90
2023-01-03T08:55:02.447Z,20.70
2023-01-03T08:57:30.186Z,16.40
2023-01-03T08:59:57.758Z,35.60
2023-01-03T09:02:25.661Z,16.60
2023-01-03T09:04:54.349Z,10.40
2023-01-03T09:07:22.148Z,22.50
2023-01-03T09:09:49.583Z,13.00
2023-01-03T09:12:17.127Z,7.20
2023-01-03T09:14:44.425Z,6.00
2023-01-03T09:17:12.317Z,5.30
2023-01-03T09:19:39.631Z,7.10
2023-01-03T09:22:07.349Z,28.30
2023-01-03T09:24:34.950Z,1.00
2023-01-03T09:27:02.605Z,1.20
2023-01-03T09:29:29.967Z,1.00
2023-01-03T09:31:57.818Z,1.00
2023-01-03T09:34:26.472Z,1.00
2023-01-03T09:36:54.575Z,1.00
2023-01-03T09:39:22.213Z,1.00
2023-01-03T09:42:09.871Z,1.00
2023-01-03T09:44:39.681Z,1.00
2023-01-03T09:47:10.152Z,1.00
2023-01-03T09:49:57.646Z,1.00
2023-01-03T09:52:50.212Z,1.00
2023-01-03T09:55:55.909Z,1.00
2023-01-03T09:58:42.523Z,1.00
2023-01-03T10:01:50.650Z,1.00
2023-01-03T10:04:49.456Z,1.00
2023-01-03T10:07:38.435Z,1.00
2023-01-03T10:10:12.413Z,1.00
2023-01-03T10:13:00.857Z,1.00
2023-01-03T10:15:49.390Z,1.00
2023-01-03T10:18:25.825Z,1.00
2023-01-03T10:20:55.793Z,1.00
2023-01-03T10:23:23.849Z,1.00
2023-01-03T10:25:53.287Z,11.90
2023-01-03T10:28:25.086Z,23.60
2023-01-03T10:31:08.316Z,1.00
2023-01-03T10:33:47.018Z,69.90
2023-01-03T10:36:20.564Z,1.00
2023-01-03T10:38:52.785Z,1.00
2023-01-03T10:41:44.456Z,1.00
2023-01-03T10:44:28.527Z,1.00
2023-01-03T10:47:11.181Z,1.00
2023-01-03T10:49:47.826Z,1.00
2023-01-03T10:52:23.107Z,1.00
2023-01-03T10:54:59.202Z,1.00
2023-01-03T10:57:46.743Z,1.00
2023-01-03T11:00:24.390Z,1.00
2023-01-03T11:02:53.841Z,1.00
2023-01-03T11:05:25.300Z,1.00
2023-01-03T11:08:02.087Z,1.00
2023-01-03T11:10:39.430Z,1.00
2023-01-03T11:13:31.555Z,1.00
2023-01-03T11:16:01.733Z,1.00
2023-01-03T11:18:32.592Z,1.00
2023-01-03T11:21:24.094Z,1.00
2023-01-03T11:24:21.899Z,1.00
2023-01-03T11:27:07.847Z,1.00
2023-01-03T11:29:44.114Z,1.00
2023-01-03T11:32:21.847Z,1.00
2023-01-03T11:35:25.031Z,1.00
2023-01-03T11:38:14.797Z,1.00
2023-01-03T11:41:13.695Z,1.00
2023-01-03T11:44:17.394Z,1.00
2023-01-03T11:47:07.348Z,1.00
2023-01-03T11:49:40.748Z,1.00
2023-01-03T11:52:43.078Z,1.00
2023-01-03T11:55:46.110Z,1.00
2023-01-03T11:58:44.013Z,1.00
2023-01-03T12:01:39.733Z,1.00
2023-01-03T12:04:31.041Z,1.00
2023-01-03T12:07:45.306Z,1.00
2023-01-03T12:10:13.566Z,1.00
2023-01-03T12:12:52.945Z,1.00
2023-01-03T12:15:35.289Z,1.00
2023-01-03T12:18:21.386Z,1.00
2023-01-03T12:21:07.886Z,1.00
2023-01-03T12:23:46.996Z,1.00
2023-01-03T12:26:22.535Z,1.00
2023-01-03T12:29:01.355Z,1.00
2023-01-03T12:31:34.437Z,1.00
2023-01-03T12:34:21.239Z,1.00
2023-01-03T12:40:52.852Z,1.00
2023-01-03T12:43:56.046Z,1.00
2023-01-03T12:46:33.003Z,1.00
2023-01-03T12:49:17.482Z,1.00
2023-01-03T12:51:45.111Z,1.00
2023-01-03T12:54:19.562Z,1.00
2023-01-03T12:57:17.178Z,1.00
2023-01-03T13:00:10.117Z,1.00
2023-01-03T13:02:44.089Z,1.00
2023-01-03T13:05:36.861Z,1.00
2023-01-03T13:08:18.875Z,1.00
2023-01-03T13:10:51.961Z,1.00
2023-01-03T13:13:21.254Z,1.00
2023-01-03T13:15:49.257Z,1.00
2023-01-03T13:18:19.868Z,1.00
2023-01-03T13:20:50.234Z,1.00
2023-01-03T13:23:34.819Z,1.00
2023-01-03T13:26:06.051Z,1.00
2023-01-03T13:28:38.261Z,1.00
2023-01-03T13:31:15.089Z,1.00
2023-01-03T13:33:58.105Z,1.00
2023-01-03T13:36:25.838Z,1.00
2023-01-03T13:38:53.331Z,1.00
2023-01-03T13:41:37.380Z,1.00
2023-01-03T13:44:24.737Z,1.00
2023-01-03T13:46:52.718Z,1.00
2023-01-03T13:49:29.842Z,1.00
2023-01-03T13:52:05.927Z,1.00
2023-01-03T13:54:57.457Z,1.00
2023-01-03T13:57:54.093Z,1.00
2023-01-03T14:00:24.153Z,1.00
2023-01-03T14:02:55.459Z,1.00
2023-01-03T14:05:57.567Z,1.00
2023-01-03T14:08:50.802Z,1.00
2023-01-03T14:11:39.695Z,1.00
2023-01-03T14:14:16.853Z,1.00
2023-01-03T14:16:56.444Z,1.00
2023-01-03T14:19:30.695Z,1.00
2023-01-03T14:22:27.612Z,1.00
2023-01-03T14:24:57.353Z,1.00
2023-01-03T14:27:38.020Z,1.00
2023-01-03T14:30:24.511Z,1.00
2023-01-03T14:32:53.905Z,1.00
2023-01-03T14:35:38.366Z,1.00
2023-01-03T14:38:24.970Z,1.00
2023-01-03T14:40:57.889Z,1.00
2023-01-03T14:43:34.201Z,1.00
2023-01-03T14:46:06.861Z,1.00
2023-01-03T14:48:34.745Z,1.00
2023-01-03T14:51:05.499Z,1.00
2023-01-03T14:53:34.622Z,1.00
2023-01-03T14:56:03.584Z,1.00
2023-01-03T14:58:39.717Z,1.00
2023-01-03T15:01:10.827Z,1.00
2023-01-03T15:03:42.512Z,1.00
2023-01-03T15:06:21.363Z,1.00
2023-01-03T15:08:53.701Z,1.00
2023-01-03T15:11:56.261Z,1.00
2023-01-03T15:14:26.535Z,1.00
2023-01-03T15:17:10.709Z,1.00
2023-01-03T15:19:40.985Z,1.00
2023-01-03T15:22:13.368Z,1.00
2023-01-03T15:24:45.832Z,1.00
2023-01-03T15:27:52.471Z,1.00
2023-01-03T15:30:25.172Z,1.00
2023-01-03T15:33:34.453Z,1.00
2023-01-03T15:36:18.515Z,1.00
2023-01-03T15:38:49.224Z,1.00
2023-01-03T15:41:42.596Z,1.00
2023-01-03T15:44:13.822Z,1.00
2023-01-03T15:46:46.208Z,1.00
2023-01-03T15:49:16.861Z,1.00
2023-01-03T15:51:45.525Z,1.00
2023-01-03T15:54:17.798Z,1.00
2023-01-03T15:56:55.129Z,1.00
2023-01-03T15:59:25.994Z,1.00
2023-01-03T16:01:54.795Z,1.00
2023-01-03T16:04:22.892Z,1.00
2023-01-03T16:06:50.559Z,1.00
2023-01-03T16:09:19.545Z,1.00
2023-01-03T16:11:51.582Z,1.00
2023-01-03T16:14:23.281Z,1.00
2023-01-03T16:16:53.965Z,1.00
2023-01-03T16:19:25.915Z,1.00
2023-01-03T16:22:32.834Z,1.00
2023-01-03T16:24:47.238Z,1.00
2023-01-03T16:27:22.281Z,1.00
2023-01-03T16:29:50.712Z,1.00
2023-01-03T16:32:25.996Z,1.00
2023-01-03T16:34:59.981Z,1.00
2023-01-03T16:37:28.396Z,1.00
2023-01-03T16:39:56.734Z,1.00
2023-01-03T16:42:27.979Z,1.00
2023-01-03T16:44:56.519Z,1.00
2023-01-03T16:47:32.980Z,1.00
2023-01-03T16:50:08.336Z,1.00
2023-01-03T16:52:41.631Z,1.00
2023-01-03T16:55:24.577Z,1.00
2023-01-03T16:57:54.871Z,1.00
2023-01-03T17:00:27.024Z,1.00
2023-01-03T17:03:00.343Z,1.00
2023-01-03T17:05:37.491Z,1.00
2023-01-03T17:08:16.748Z,1.00
2023-01-03T17:10:47.842Z,1.00
2023-01-03T17:13:32.171Z,1.00
2023-01-03T17:16:02.663Z,1.00
2023-01-03T17:18:33.480Z,1.00
2023-01-03T17:21:08.888Z,1.00
2023-01-03T17:23:41.696Z,1.00
2023-01-03T17:26:16.861Z,1.00
2023-01-03T17:28:48.387Z,1.00
2023-01-03T17:31:20.408Z,1.00
2023-01-03T17:33:48.795Z,1.00
2023-01-03T17:36:20.502Z,1.00
2023-01-03T17:38:48.503Z,1.00
2023-01-03T17:41:23.377Z,1.00
2023-01-03T17:43:51.340Z,1.00
2023-01-03T17:46:42.911Z,1.00
2023-01-03T17:49:26.513Z,1.00
2023-01-03T17:52:04.919Z,1.00
2023-01-03T17:54:37.753Z,1.00
2023-01-03T17:57:06.413Z,1.00
2023-01-03T17:59:35.170Z,1.00
2023-01-03T18:02:03.109Z,1.00
2023-01-03T18:05:05.361Z,1.00
2023-01-03T18:07:26.683Z,1.00
2023-01-03T18:09:56.754Z,1.00
2023-01-03T18:12:26.833Z,1.00
2023-01-03T18:14:54.459Z,1.00
2023-01-03T18:17:34.142Z,1.00
2023-01-03T18:20:02.791Z,1.00
2023-01-03T18:22:31.404Z,1.00
2023-01-03T18:24:59.300Z,1.00
2023-01-03T18:27:28.420Z,1.00
2023-01-03T18:29:56.865Z,1.00
2023-01-03T18:32:27.305Z,1.00
2023-01-03T18:34:56.092Z,1.00
2023-01-03T18:37:34.247Z,1.00
2023-01-03T18:40:07.260Z,1.00
2023-01-03T18:42:56.525Z,1.00
2023-01-03T18:45:29.975Z,1.00
2023-01-03T18:47:57.955Z,1.00
2023-01-03T18:50:26.089Z,1.00
2023-01-03T18:52:54.910Z,1.00
2023-01-03T18:55:25.760Z,1.00
2023-01-03T18:57:57.058Z,1.00
2023-01-03T19:00:26.922Z,1.00
2023-01-03T19:02:56.011Z,1.00
2023-01-03T19:05:24.530Z,1.00
2023-01-03T19:07:53.304Z,1.00
2023-01-03T19:10:27.352Z,1.00
2023-01-03T19:12:57.416Z,1.00
2023-01-03T19:15:29.803Z,1.00
2023-01-03T19:17:58.728Z,1.00
2023-01-03T19:20:27.568Z,1.00
2023-01-03T19:22:58.517Z,1.00
2023-01-03T19:25:31.205Z,1.00
2023-01-03T19:28:02.722Z,1.00
2023-01-03T19:30:37.585Z,1.00
2023-01-03T19:33:12.437Z,1.00
2023-01-03T19:35:41.046Z,1.00
2023-01-03T19:40:40.006Z,1.00
2023-01-03T19:45:44.745Z,1.00
2023-01-03T19:48:23.313Z,1.00
2023-01-03T19:50:53.596Z,1.00
2023-01-03T19:55:52.327Z,1.00
2023-01-03T19:58:33.187Z,1.00
2023-01-03T20:01:01.895Z,1.00
2023-01-03T20:03:35.681Z,1.00
2023-01-03T20:06:10.999Z,1.00
2023-01-03T20:08:39.204Z,1.00
2023-01-03T20:11:15.766Z,1.00
2023-01-03T20:16:12.971Z,1.00
2023-01-03T20:18:43.925Z,1.00
2023-01-03T20:21:22.477Z,1.00
2023-01-03T20:23:57.560Z,1.00
2023-01-03T20:26:30.125Z,1.00
2023-01-03T20:29:06.420Z,1.00
2023-01-03T20:31:34.300Z,22.50
2023-01-03T20:34:06.511Z,53.80
2023-01-03T20:36:41.327Z,1.00
2023-01-03T20:39:28.463Z,1.00
2023-01-03T20:42:01.635Z,1.00
2023-01-03T20:47:00.816Z,1.00
2023-01-03T20:49:29.347Z,1.00
2023-01-03T20:51:57.446Z,19.40
2023-01-03T20:56:54.091Z,1.00
2023-01-03T20:59:23.592Z,1.00
2023-01-03T21:01:52.566Z,1.00
2023-01-03T21:04:21.785Z,1.00
2023-01-03T21:06:53.647Z,35.40
2023-01-03T21:09:28.250Z,1.00
2023-01-03T21:11:55.986Z,22.70
2023-01-03T21:14:24.488Z,6.20
2023-01-03T21:19:25.476Z,99.90
2023-01-03T21:21:54.892Z,10.80
2023-01-03T21:24:25.538Z,99.90
2023-01-03T21:34:22.045Z,4.80
2023-01-03T21:47:04.035Z,99.90
2023-01-03T22:24:48.872Z,99.90
2023-01-03T22:27:17.305Z,99.90
2023-01-03T22:44:36.666Z,99.90
2023-01-03T22:49:34.785Z,99.90
2023-01-03T22:59:28.021Z,99.90
2023-01-03T23:06:55.135Z,99.90
2023-01-03T23:09:23.717Z,99.90
2023-01-03T23:12:10.111Z,99.90
